createdAt,value
2023-01-17T00:02:39.808Z,4.00
2023-01-17T00:08:01.228Z,3.90
2023-01-17T00:13:04.501Z,4.00
2023-01-17T00:18:07.172Z,5.50
2023-01-17T00:23:35.030Z,4.00
2023-01-17T00:28:39.705Z,4.00
2023-01-17T00:33:42.802Z,4.00
2023-01-17T00:38:45.491Z,3.90
2023-01-17T00:44:06.554Z,3.80
2023-01-17T00:49:27.753Z,3.80
2023-01-17T00:54:49.119Z,3.80
2023-01-17T01:00:10.236Z,6.10
2023-01-17T01:05:32.618Z,3.90
2023-01-17T01:10:53.745Z,3.90
2023-01-17T01:16:18.385Z,3.90
2023-01-17T01:21:39.361Z,3.90
2023-01-17T01:27:00.307Z,3.90
2023-01-17T01:32:21.332Z,3.90
2023-01-17T01:37:23.928Z,3.90
2023-01-17T01:42:26.415Z,3.80
2023-01-17T01:47:40.809Z,3.80
2023-01-17T01:52:51.978Z,3.70
2023-01-17T01:57:58.609Z,3.60
2023-01-17T02:03:06.058Z,3.60
2023-01-17T02:08:12.841Z,3.50
2023-01-17T02:13:19.108Z,3.60
2023-01-17T02:18:55.670Z,3.50
2023-01-17T02:24:01.249Z,3.40
2023-01-17T02:29:37.627Z,3.40
2023-01-17T02:34:46.451Z,3.40
2023-01-17T02:40:01.993Z,3.50
2023-01-17T02:45:05.247Z,3.40
2023-01-17T02:50:12.608Z,3.40
2023-01-17T02:55:27.051Z,3.40
2023-01-17T03:00:47.974Z,3.20
2023-01-17T03:06:30.857Z,3.00
2023-01-17T03:11:33.503Z,2.90
2023-01-17T03:16:36.621Z,2.80
2023-01-17T03:21:39.125Z,2.70
2023-01-17T03:26:44.952Z,2.90
2023-01-17T03:31:47.484Z,3.00
2023-01-17T03:36:50.110Z,3.20
2023-01-17T03:41:52.700Z,3.30
2023-01-17T03:46:55.230Z,3.30
2023-01-17T03:51:58.316Z,3.30
2023-01-17T03:57:00.830Z,3.40
2023-01-17T04:02:03.665Z,3.40
2023-01-17T04:07:06.329Z,3.40
2023-01-17T04:12:09.567Z,3.40
2023-01-17T04:17:13.313Z,3.30
2023-01-17T04:22:15.964Z,3.20
2023-01-17T04:27:18.568Z,2.90
2023-01-17T04:32:21.068Z,2.60
2023-01-17T04:37:23.566Z,2.50
2023-01-17T04:42:26.050Z,2.40
2023-01-17T04:47:28.845Z,2.30
2023-01-17T04:52:31.364Z,2.10
2023-01-17T04:57:34.109Z,2.00
2023-01-17T05:02:36.747Z,1.80
2023-01-17T05:07:39.581Z,1.70
2023-01-17T05:12:42.203Z,1.80
2023-01-17T05:17:44.815Z,1.60
2023-01-17T05:22:55.769Z,1.50
2023-01-17T05:28:00.286Z,2.50
2023-01-17T05:33:03.074Z,1.50
2023-01-17T05:38:05.743Z,1.50
2023-01-17T05:43:09.129Z,1.50
2023-01-17T05:48:11.762Z,1.40
2023-01-17T05:53:16.224Z,1.40
2023-01-17T05:58:21.810Z,1.40
2023-01-17T06:03:24.451Z,1.40
2023-01-17T06:08:26.969Z,1.40
2023-01-17T06:13:29.523Z,1.50
2023-01-17T06:18:32.237Z,1.40
2023-01-17T06:23:34.827Z,1.50
2023-01-17T06:28:37.793Z,1.50
2023-01-17T06:33:40.411Z,1.40
2023-01-17T06:38:43.066Z,1.30
2023-01-17T06:43:45.588Z,1.20
2023-01-17T06:48:48.843Z,1.20
2023-01-17T06:53:51.496Z,1.30
2023-01-17T06:58:53.947Z,1.30
2023-01-17T07:03:57.059Z,1.20
2023-01-17T07:09:01.072Z,1.30
2023-01-17T07:14:03.689Z,1.40
2023-01-17T07:19:06.218Z,1.50
2023-01-17T07:24:09.346Z,1.60
2023-01-17T07:29:11.887Z,1.70
2023-01-17T07:34:14.493Z,1.90
2023-01-17T07:39:17.384Z,1.90
2023-01-17T07:44:19.910Z,2.00
2023-01-17T07:49:22.542Z,2.10
2023-01-17T07:54:25.117Z,2.20
2023-01-17T07:59:27.756Z,2.20
2023-01-17T08:04:34.863Z,2.30
2023-01-17T08:09:38.546Z,2.40
2023-01-17T08:14:41.074Z,2.40
2023-01-17T08:19:44.784Z,2.50
2023-01-17T08:24:47.579Z,2.70
2023-01-17T08:29:50.842Z,2.80
2023-01-17T08:34:53.555Z,3.00
2023-01-17T08:39:56.095Z,3.10
2023-01-17T08:44:58.570Z,3.30
2023-01-17T08:50:01.264Z,3.30
2023-01-17T08:55:05.966Z,3.40
2023-01-17T09:00:09.923Z,3.50
2023-01-17T09:05:13.543Z,3.40
2023-01-17T09:10:16.675Z,3.50
2023-01-17T09:15:20.326Z,3.50
2023-01-17T09:20:23.881Z,3.50
2023-01-17T09:25:26.681Z,3.60
2023-01-17T09:30:29.250Z,3.60
2023-01-17T09:35:31.876Z,3.60
2023-01-17T09:40:36.508Z,3.60
2023-01-17T09:45:39.220Z,3.70
2023-01-17T09:50:56.512Z,3.90
2023-01-17T09:56:06.580Z,4.10
2023-01-17T10:01:18.960Z,4.20
2023-01-17T10:06:39.915Z,4.30
2023-01-17T10:12:19.612Z,4.40
2023-01-17T10:17:40.833Z,4.40
2023-01-17T10:22:46.548Z,4.30
2023-01-17T10:28:00.190Z,4.40
2023-01-17T10:33:12.146Z,4.50
2023-01-17T10:38:16.655Z,4.60
2023-01-17T10:43:22.814Z,4.90
2023-01-17T10:48:40.656Z,4.90
2023-01-17T10:53:55.865Z,5.00
2023-01-17T10:59:28.777Z,5.10
2023-01-17T11:04:36.714Z,5.80
2023-01-17T11:09:40.811Z,5.30
2023-01-17T11:14:59.909Z,5.40
2023-01-17T11:20:28.172Z,5.60
2023-01-17T11:25:33.997Z,5.60
2023-01-17T11:30:36.636Z,5.50
2023-01-17T11:35:45.118Z,5.40
2023-01-17T11:40:49.431Z,5.30
2023-01-17T11:46:17.971Z,5.40
2023-01-17T11:51:23.866Z,5.50
2023-01-17T11:56:35.891Z,5.50
2023-01-17T12:02:10.198Z,5.70
2023-01-17T12:07:39.269Z,5.70
2023-01-17T12:13:38.313Z,5.70
2023-01-17T12:19:10.560Z,5.80
2023-01-17T12:24:39.499Z,5.80
2023-01-17T12:30:16.321Z,5.90
2023-01-17T12:35:26.186Z,5.80
2023-01-17T12:40:57.807Z,5.80
2023-01-17T12:46:07.512Z,5.80
2023-01-17T12:51:23.483Z,5.90
2023-01-17T12:56:54.084Z,5.90
2023-01-17T13:01:58.958Z,5.80
2023-01-17T13:07:11.034Z,5.50
2023-01-17T13:12:17.024Z,5.40
2023-01-17T13:17:27.591Z,5.50
2023-01-17T13:22:32.429Z,5.60
2023-01-17T13:27:57.754Z,5.60
2023-01-17T13:33:28.365Z,5.60
2023-01-17T13:38:54.994Z,5.50
2023-01-17T13:44:19.217Z,5.50
2023-01-17T13:49:34.587Z,5.40
2023-01-17T13:54:48.031Z,5.30
2023-01-17T13:59:50.748Z,5.40
2023-01-17T14:05:18.448Z,5.10
2023-01-17T14:10:36.457Z,4.70
2023-01-17T14:15:48.239Z,4.50
2023-01-17T14:21:02.638Z,4.30
2023-01-17T14:26:22.636Z,4.30
2023-01-17T14:31:26.337Z,4.20
2023-01-17T14:36:32.696Z,4.40
2023-01-17T14:41:35.278Z,4.40
2023-01-17T14:46:37.892Z,4.60
2023-01-17T14:51:40.478Z,4.40
2023-01-17T14:56:43.065Z,4.10
2023-01-17T15:02:06.796Z,3.90
2023-01-17T15:07:16.812Z,3.60
2023-01-17T15:12:19.613Z,3.50
2023-01-17T15:17:27.419Z,3.50
2023-01-17T15:22:30.441Z,3.30
2023-01-17T15:27:33.321Z,3.30
2023-01-17T15:32:38.011Z,3.30
2023-01-17T15:37:41.793Z,3.10
2023-01-17T15:42:59.018Z,2.90
2023-01-17T15:48:37.138Z,3.00
2023-01-17T15:53:42.497Z,2.80
2023-01-17T15:58:48.625Z,2.30
2023-01-17T16:03:54.113Z,1.90
2023-01-17T16:08:56.578Z,1.90
2023-01-17T16:13:59.057Z,2.10
2023-01-17T16:19:02.719Z,2.20
2023-01-17T16:24:09.025Z,2.30
2023-01-17T16:29:11.651Z,2.30
2023-01-17T16:34:14.152Z,1.90
2023-01-17T16:39:16.876Z,1.70
2023-01-17T16:44:19.393Z,1.50
2023-01-17T16:49:21.918Z,0.80
2023-01-17T16:54:25.022Z,0.20
2023-01-17T16:59:39.534Z,0.00
2023-01-17T17:04:48.696Z,-0.30
2023-01-17T17:09:51.201Z,-0.60
2023-01-17T17:14:53.752Z,-0.70
2023-01-17T17:19:56.276Z,-0.70
2023-01-17T17:24:58.954Z,-0.70
2023-01-17T17:30:01.554Z,-0.70
2023-01-17T17:35:04.874Z,-0.40
2023-01-17T17:40:07.911Z,-0.20
2023-01-17T17:45:10.838Z,-0.20
2023-01-17T17:50:13.588Z,-0.50
2023-01-17T17:55:19.111Z,-0.40
2023-01-17T18:00:23.203Z,-0.50
2023-01-17T18:05:25.720Z,-0.50
2023-01-17T18:10:28.662Z,-0.90
2023-01-17T18:15:31.339Z,-0.80
2023-01-17T18:20:34.335Z,-0.80
2023-01-17T18:25:36.964Z,-1.00
2023-01-17T18:30:39.650Z,-0.80
2023-01-17T18:35:42.214Z,-0.90
2023-01-17T18:40:44.848Z,-1.40
2023-01-17T18:45:53.803Z,-1.40
2023-01-17T18:50:57.130Z,-1.40
2023-01-17T18:56:01.673Z,-1.30
2023-01-17T19:01:13.444Z,-1.50
2023-01-17T19:06:19.823Z,-1.60
2023-01-17T19:11:24.237Z,-1.60
2023-01-17T19:16:29.850Z,-1.80
2023-01-17T19:21:32.525Z,-1.90
2023-01-17T19:26:35.050Z,-1.80
2023-01-17T19:31:42.799Z,-2.00
2023-01-17T19:36:47.305Z,-2.00
2023-01-17T19:41:51.143Z,-1.90
2023-01-17T19:46:54.502Z,-2.20
2023-01-17T19:51:57.056Z,-2.20
2023-01-17T19:56:59.732Z,-2.00
2023-01-17T20:02:02.497Z,-2.30
2023-01-17T20:07:05.503Z,-2.00
2023-01-17T20:12:08.270Z,-1.90
2023-01-17T20:17:10.957Z,-1.80
2023-01-17T20:22:16.932Z,-2.10
2023-01-17T20:27:21.484Z,-2.10
2023-01-17T20:32:24.108Z,-2.10
2023-01-17T20:37:26.782Z,-2.30
2023-01-17T20:42:29.302Z,-2.40
2023-01-17T20:47:31.995Z,-2.30
2023-01-17T20:52:34.506Z,-2.10
2023-01-17T21:02:40.281Z,-2.10
2023-01-17T21:07:43.241Z,-2.10
2023-01-17T21:12:46.704Z,-2.20
2023-01-17T21:17:49.251Z,-2.00
2023-01-17T21:22:52.257Z,-1.90
2023-01-17T21:27:55.173Z,-1.80
2023-01-17T21:32:57.825Z,-1.60
2023-01-17T21:38:01.498Z,-1.40
2023-01-17T21:43:04.255Z,-1.30
2023-01-17T21:48:12.232Z,-1.10
2023-01-17T21:53:14.889Z,-1.10
2023-01-17T21:58:37.250Z,-1.30
2023-01-17T22:03:39.767Z,-1.60
2023-01-17T22:08:42.940Z,-1.60
2023-01-17T22:13:46.199Z,-1.80
2023-01-17T22:18:49.517Z,-2.00
2023-01-17T22:23:54.800Z,-1.80
2023-01-17T22:29:00.419Z,-1.70
2023-01-17T22:34:04.957Z,-1.40
2023-01-17T22:39:09.319Z,-0.80
2023-01-17T22:44:11.821Z,-0.90
2023-01-17T22:49:16.828Z,-1.00
2023-01-17T22:54:19.571Z,-1.10
2023-01-17T22:59:22.129Z,-1.00
2023-01-17T23:04:24.704Z,-0.70
2023-01-17T23:09:27.797Z,-0.80
2023-01-17T23:14:52.574Z,-0.60
2023-01-17T23:19:55.248Z,-0.60
2023-01-17T23:25:05.772Z,-0.70
2023-01-17T23:30:17.301Z,-0.60
2023-01-17T23:35:22.122Z,-0.50
2023-01-17T23:40:24.785Z,-0.50
2023-01-17T23:45:30.389Z,-0.50
2023-01-17T23:50:33.687Z,-0.40
2023-01-17T23:55:42.400Z,-0.40
